Time;durP1;ratioP1;P1;durP2;ratioP2;P2;SDS_P1;SDS_P2;PMS_P1;PMS_P2;Temp;Humidity;BMP_temperature;BMP_pressure;BME280_temperature;BME280_humidity;BME280_pressure;Samples;Min_cycle;Max_cycle;Signal;HPM_P1;HPM_P2
2021/04/28 00:01:25;;;;;;;7.35;5.60;;;9.40;42.70;;;;;;5022581;28;20057;-73
2021/04/28 00:03:50;;;;;;;7.95;5.68;;;9.40;42.80;;;;;;5022687;28;20367;-72
2021/04/28 00:06:16;;;;;;;10.88;5.50;;;9.40;43.00;;;;;;5040041;28;20061;-73
2021/04/28 00:08:42;;;;;;;7.72;5.72;;;9.30;43.00;;;;;;5022685;28;20073;-72
2021/04/28 00:11:08;;;;;;;7.95;5.47;;;9.30;43.20;;;;;;5040334;28;20424;-72
2021/04/28 00:13:34;;;;;;;8.23;6.30;;;9.30;43.30;;;;;;5022200;28;20064;-73
2021/04/28 00:15:59;;;;;;;7.85;5.60;;;9.20;43.40;;;;;;5022386;28;20037;-73
2021/04/28 00:18:27;;;;;;;8.77;5.57;;;9.20;43.60;;;;;;5022257;28;20466;-73
2021/04/28 00:20:53;;;;;;;7.00;5.22;;;9.20;43.70;;;;;;5004704;28;20054;-72
2021/04/28 00:23:20;;;;;;;9.90;5.55;;;9.20;43.80;;;;;;5022138;28;20124;-73
2021/04/28 00:25:46;;;;;;;9.15;6.28;;;9.10;43.90;;;;;;5022193;28;20042;-72
2021/04/28 00:28:12;;;;;;;7.78;5.40;;;9.10;44.10;;;;;;5006050;28;20174;-73
2021/04/28 00:30:38;;;;;;;6.78;5.30;;;9.10;44.10;;;;;;5019256;28;20069;-73
2021/04/28 00:33:04;;;;;;;10.30;6.38;;;9.10;44.40;;;;;;5036342;28;20047;-72
2021/04/28 00:35:30;;;;;;;9.45;5.93;;;9.00;44.20;;;;;;5035496;28;20120;-72
2021/04/28 00:37:56;;;;;;;7.97;5.32;;;9.00;44.40;;;;;;5001118;28;20129;-73
2021/04/28 00:40:33;;;;;;;8.25;6.22;;;9.00;44.50;;;;;;5000526;28;20065;-73
2021/04/28 00:43:01;;;;;;;8.20;5.82;;;9.00;44.40;;;;;;5036130;28;20049;-72
2021/04/28 00:45:27;;;;;;;9.02;5.88;;;8.90;44.60;;;;;;5016779;28;20041;-73
2021/04/28 00:47:54;;;;;;;6.20;5.10;;;8.90;44.70;;;;;;5001397;28;20064;-72
2021/04/28 00:50:29;;;;;;;8.23;6.45;;;8.90;44.70;;;;;;5019341;28;20049;-73
2021/04/28 00:52:54;;;;;;;8.85;6.20;;;8.90;44.90;;;;;;5005348;28;20156;-72
2021/04/28 00:55:20;;;;;;;7.00;5.63;;;8.90;44.90;;;;;;4988334;28;20038;-74
2021/04/28 00:57:46;;;;;;;8.02;6.03;;;8.80;44.90;;;;;;4988692;28;20120;-73
2021/04/28 01:00:14;;;;;;;7.45;5.85;;;8.80;45.00;;;;;;5020953;28;20091;-72
2021/04/28 01:02:40;;;;;;;7.40;5.70;;;8.80;45.10;;;;;;5019875;28;20060;-72
2021/04/28 01:05:06;;;;;;;8.95;6.43;;;8.70;45.10;;;;;;5020313;28;20038;-72
2021/04/28 01:07:32;;;;;;;7.50;6.25;;;8.70;45.10;;;;;;5019998;28;20505;-72
2021/04/28 01:09:58;;;;;;;8.00;5.70;;;8.70;45.30;;;;;;5020705;28;20053;-71
2021/04/28 01:12:24;;;;;;;8.23;6.10;;;8.70;45.30;;;;;;5020341;28;20072;-73
2021/04/28 01:14:51;;;;;;;8.70;5.93;;;8.60;45.40;;;;;;5020754;28;20038;-73
2021/04/28 01:17:17;;;;;;;8.77;6.22;;;8.60;45.50;;;;;;5004038;28;20445;-73
2021/04/28 01:19:42;;;;;;;9.73;6.22;;;8.60;45.50;;;;;;5020009;28;20107;-73
2021/04/28 01:22:08;;;;;;;9.48;6.07;;;8.60;45.50;;;;;;5004489;28;20057;-73
2021/04/28 01:24:34;;;;;;;8.82;6.60;;;8.60;45.60;;;;;;5003662;28;20509;-72
2021/04/28 01:27:02;;;;;;;6.72;5.53;;;8.50;45.70;;;;;;5002621;28;20046;-72
2021/04/28 01:29:28;;;;;;;8.75;6.28;;;8.50;45.80;;;;;;5000937;28;20042;-73
2021/04/28 01:31:55;;;;;;;8.05;5.75;;;8.50;45.90;;;;;;4985212;28;20455;-72
2021/04/28 01:34:21;;;;;;;9.27;6.28;;;8.40;45.90;;;;;;5017873;28;20053;-72
2021/04/28 01:36:47;;;;;;;9.32;6.00;;;8.40;46.00;;;;;;5000856;28;20038;-72
2021/04/28 01:39:14;;;;;;;8.38;5.72;;;8.40;46.00;;;;;;5001258;28;20132;-72
2021/04/28 01:41:41;;;;;;;8.02;6.22;;;8.40;46.10;;;;;;5034813;28;20144;-72
2021/04/28 01:44:07;;;;;;;8.73;5.95;;;8.30;46.20;;;;;;5001347;28;20049;-72
2021/04/28 01:46:33;;;;;;;8.73;6.10;;;8.30;46.30;;;;;;5000743;28;20045;-73
2021/04/28 01:48:59;;;;;;;8.23;6.05;;;8.30;46.40;;;;;;5017341;28;20124;-73
2021/04/28 01:51:25;;;;;;;9.57;6.28;;;8.30;46.40;;;;;;5001542;28;20045;-73
2021/04/28 01:53:51;;;;;;;7.45;5.50;;;8.20;46.40;;;;;;5001405;28;20049;-73
2021/04/28 01:56:17;;;;;;;9.45;6.75;;;8.30;46.50;;;;;;5001126;28;20538;-73
2021/04/28 01:58:43;;;;;;;8.93;6.03;;;8.20;46.40;;;;;;4984450;28;20482;-73
2021/04/28 02:01:09;;;;;;;8.57;5.97;;;8.20;46.50;;;;;;5017598;28;20054;-73
2021/04/28 02:03:38;;;;;;;7.28;5.95;;;8.20;46.60;;;;;;5034411;28;20056;-73
2021/04/28 02:06:04;;;;;;;9.00;5.72;;;8.20;46.70;;;;;;5017572;28;20040;-72
2021/04/28 02:08:35;;;;;;;7.82;5.97;;;8.10;46.60;;;;;;5017705;28;20041;-73
2021/04/28 02:11:02;;;;;;;9.43;6.47;;;8.10;46.60;;;;;;4985709;28;20079;-72
2021/04/28 02:13:30;;;;;;;8.40;5.70;;;8.10;46.70;;;;;;5001576;28;20061;-72
2021/04/28 02:15:56;;;;;;;9.52;6.03;;;8.10;46.70;;;;;;5034643;28;20095;-73
2021/04/28 02:18:22;;;;;;;9.40;6.25;;;8.00;46.70;;;;;;5017378;28;20116;-72
2021/04/28 02:20:47;;;;;;;8.10;5.95;;;8.00;46.70;;;;;;5000373;28;20057;-72
2021/04/28 02:23:13;;;;;;;6.55;5.03;;;8.00;46.70;;;;;;5017224;28;20096;-73
2021/04/28 02:25:39;;;;;;;7.75;5.75;;;8.00;46.70;;;;;;5016215;28;20065;-72
2021/04/28 02:28:05;;;;;;;8.50;6.22;;;8.00;46.80;;;;;;5017283;28;20048;-73
2021/04/28 02:30:32;;;;;;;7.68;5.90;;;8.00;46.80;;;;;;5016948;28;20041;-76
2021/04/28 02:32:58;;;;;;;7.30;5.57;;;8.00;46.80;;;;;;5017381;28;20044;-74
2021/04/28 02:35:24;;;;;;;8.88;6.28;;;8.00;46.90;;;;;;5016880;28;20042;-73
2021/04/28 02:38:21;;;;;;;8.52;5.45;;;7.90;46.90;;;;;;4984579;28;20073;-73
2021/04/28 02:40:46;;;;;;;9.52;6.13;;;7.90;47.20;;;;;;5016716;28;20080;-72
2021/04/28 02:43:19;;;;;;;6.95;5.97;;;7.90;47.00;;;;;;5001823;28;20046;-72
2021/04/28 02:45:45;;;;;;;8.18;6.20;;;7.90;47.00;;;;;;5004034;28;20049;-72
2021/04/28 02:48:11;;;;;;;7.30;5.65;;;7.80;47.00;;;;;;5021064;28;20045;-72
2021/04/28 02:50:37;;;;;;;7.78;6.10;;;7.80;47.00;;;;;;4988038;28;20398;-73
2021/04/28 02:53:06;;;;;;;8.68;6.25;;;7.80;47.10;;;;;;5004994;28;20049;-73
2021/04/28 02:55:32;;;;;;;6.60;5.72;;;7.80;47.20;;;;;;5021094;28;20038;-73
2021/04/28 02:57:57;;;;;;;8.73;6.38;;;7.80;47.30;;;;;;5004520;28;20503;-72
2021/04/28 03:00:23;;;;;;;8.18;5.93;;;7.70;47.20;;;;;;5004641;28;20049;-72
2021/04/28 03:02:50;;;;;;;10.48;5.93;;;7.70;47.20;;;;;;5020279;28;20481;-71
2021/04/28 03:05:17;;;;;;;8.00;6.43;;;7.80;47.30;;;;;;5021261;28;20096;-72
2021/04/28 03:07:42;;;;;;;8.15;6.15;;;7.70;47.40;;;;;;4988103;28;20046;-73
2021/04/28 03:10:09;;;;;;;7.60;6.03;;;7.60;47.40;;;;;;5038734;28;20100;-71
2021/04/28 03:12:34;;;;;;;7.03;5.78;;;7.60;47.50;;;;;;5004398;28;20037;-73
2021/04/28 03:15:00;;;;;;;9.52;5.70;;;7.60;47.50;;;;;;5020207;28;20125;-72
2021/04/28 03:17:26;;;;;;;9.93;6.13;;;7.60;47.60;;;;;;5020690;28;20064;-72
2021/04/28 03:19:55;;;;;;;8.38;6.20;;;7.60;47.50;;;;;;5037816;28;20053;-73
2021/04/28 03:22:20;;;;;;;8.23;6.35;;;7.60;47.60;;;;;;5020742;28;20045;-73
2021/04/28 03:24:47;;;;;;;8.35;6.13;;;7.60;47.70;;;;;;5019962;28;20148;-72
2021/04/28 03:27:13;;;;;;;8.45;6.38;;;7.50;47.70;;;;;;5038010;28;20042;-72
2021/04/28 03:29:39;;;;;;;8.85;5.70;;;7.50;47.70;;;;;;4987484;28;20050;-77
2021/04/28 03:32:06;;;;;;;8.77;5.63;;;7.50;47.70;;;;;;5038408;28;20159;-73
2021/04/28 03:34:32;;;;;;;8.88;5.97;;;7.50;47.80;;;;;;5020659;28;20041;-73
2021/04/28 03:36:57;;;;;;;8.57;6.20;;;7.50;47.80;;;;;;4987550;28;20041;-73
2021/04/28 03:39:23;;;;;;;10.05;6.30;;;7.50;47.90;;;;;;5020777;28;20517;-72
2021/04/28 03:41:49;;;;;;;9.85;6.72;;;7.50;47.90;;;;;;5037853;28;20053;-73
2021/04/28 03:44:15;;;;;;;7.43;6.15;;;7.40;47.90;;;;;;5040392;28;20041;-72
2021/04/28 03:46:41;;;;;;;8.38;5.93;;;7.40;48.00;;;;;;5040463;28;20045;-76
2021/04/28 03:49:07;;;;;;;7.10;5.70;;;7.40;48.00;;;;;;5040492;28;20057;-71
2021/04/28 03:51:33;;;;;;;7.43;5.97;;;7.40;48.10;;;;;;5022981;28;20045;-72
2021/04/28 03:53:58;;;;;;;9.82;5.80;;;7.40;48.20;;;;;;5041050;28;20075;-72
2021/04/28 03:56:25;;;;;;;10.90;5.85;;;7.30;48.20;;;;;;5022163;28;20051;-72
2021/04/28 03:58:51;;;;;;;6.85;5.82;;;7.40;48.30;;;;;;5023587;28;20064;-71
2021/04/28 04:01:17;;;;;;;9.70;5.43;;;7.30;48.30;;;;;;5007824;28;20514;-73
2021/04/28 04:03:44;;;;;;;9.23;6.30;;;7.30;48.30;;;;;;5023675;28;20084;-75
2021/04/28 04:06:09;;;;;;;8.30;5.95;;;7.30;48.40;;;;;;5007320;28;20100;-72
2021/04/28 04:08:35;;;;;;;7.53;5.80;;;7.30;48.50;;;;;;5041223;28;20039;-71
2021/04/28 04:11:01;;;;;;;9.05;6.43;;;7.20;49.20;;;;;;5023080;28;20478;-72
2021/04/28 04:13:27;;;;;;;7.65;5.10;;;7.20;48.50;;;;;;5006222;28;20072;-72
2021/04/28 04:15:52;;;;;;;8.02;5.78;;;7.20;48.60;;;;;;5022280;28;20042;-71
2021/04/28 04:18:18;;;;;;;7.65;5.40;;;7.20;48.70;;;;;;5022971;28;20045;-72
2021/04/28 04:20:44;;;;;;;8.57;6.22;;;7.20;48.80;;;;;;5040946;28;20084;-72
2021/04/28 04:23:10;;;;;;;8.43;5.35;;;7.20;48.80;;;;;;5022701;28;20107;-72
2021/04/28 04:25:35;;;;;;;6.13;5.45;;;7.10;48.80;;;;;;5006632;28;20140;-72
2021/04/28 04:28:01;;;;;;;7.90;5.40;;;7.10;48.80;;;;;;5023043;28;20109;-72
2021/04/28 04:30:27;;;;;;;7.72;5.65;;;7.10;48.90;;;;;;5023417;28;20412;-72
2021/04/28 04:32:53;;;;;;;8.65;5.20;;;7.10;48.90;;;;;;5039955;28;20037;-73
2021/04/28 04:35:20;;;;;;;7.78;5.50;;;7.10;49.00;;;;;;5022889;28;20505;-72
2021/04/28 04:37:45;;;;;;;7.82;5.25;;;7.10;49.10;;;;;;5023045;28;20084;-71
2021/04/28 04:40:11;;;;;;;8.27;5.47;;;7.10;49.10;;;;;;5022307;28;20057;-72
2021/04/28 04:42:37;;;;;;;8.20;6.28;;;7.00;49.10;;;;;;5006342;28;20064;-73
2021/04/28 04:45:04;;;;;;;7.18;5.45;;;7.00;49.10;;;;;;5022471;28;20049;-72
2021/04/28 04:47:30;;;;;;;6.88;5.18;;;7.10;49.20;;;;;;4990469;28;20052;-72
2021/04/28 04:49:56;;;;;;;7.70;5.25;;;7.00;49.10;;;;;;5039873;28;20037;-72
2021/04/28 04:52:21;;;;;;;10.43;6.03;;;7.00;49.10;;;;;;5006616;28;20045;-73
2021/04/28 04:54:47;;;;;;;8.73;5.57;;;7.00;49.20;;;;;;5022625;28;20045;-72
2021/04/28 04:57:13;;;;;;;7.00;5.15;;;6.90;49.20;;;;;;5040113;28;20059;-71
2021/04/28 04:59:39;;;;;;;7.28;5.35;;;7.00;49.30;;;;;;5006412;28;20049;-72
2021/04/28 05:02:04;;;;;;;6.85;5.55;;;7.00;49.40;;;;;;5022046;28;20076;-72
2021/04/28 05:04:30;;;;;;;7.65;5.28;;;6.90;49.30;;;;;;5020609;28;20045;-71
2021/04/28 05:06:56;;;;;;;9.48;5.05;;;6.90;49.30;;;;;;5001899;28;20049;-72
2021/04/28 05:09:22;;;;;;;6.30;5.07;;;6.90;49.20;;;;;;5037900;28;20049;-73
2021/04/28 05:11:47;;;;;;;9.77;5.03;;;6.90;49.30;;;;;;5021501;28;20117;-73
2021/04/28 05:14:13;;;;;;;7.88;4.60;;;6.90;49.30;;;;;;5005882;28;20087;-73
2021/04/28 05:16:39;;;;;;;7.97;5.28;;;6.90;49.30;;;;;;5006090;28;20467;-73
2021/04/28 05:19:05;;;;;;;7.03;5.25;;;6.90;49.20;;;;;;4989352;28;20046;-73
2021/04/28 05:21:31;;;;;;;6.95;5.30;;;6.90;49.20;;;;;;5018464;28;20062;-72
2021/04/28 05:23:56;;;;;;;7.57;5.13;;;7.00;49.30;;;;;;5000527;28;20378;-73
2021/04/28 05:26:22;;;;;;;7.72;4.53;;;7.00;49.20;;;;;;5000681;28;20172;-73
2021/04/28 05:28:48;;;;;;;6.50;5.05;;;6.90;49.10;;;;;;5017102;28;20410;-72
2021/04/28 05:31:13;;;;;;;8.95;5.38;;;7.00;49.10;;;;;;5017247;28;20062;-73
2021/04/28 05:33:40;;;;;;;6.82;4.95;;;6.90;49.00;;;;;;5000986;28;20042;-72
2021/04/28 05:36:07;;;;;;;8.52;5.03;;;7.00;49.10;;;;;;5001350;28;20046;-73
2021/04/28 05:38:33;;;;;;;7.95;5.65;;;7.00;49.00;;;;;;5018558;28;20073;-73
2021/04/28 05:40:58;;;;;;;8.98;5.38;;;7.00;48.90;;;;;;5001644;28;20541;-73
2021/04/28 05:43:24;;;;;;;7.78;4.88;;;7.00;48.90;;;;;;5002094;28;20085;-72
2021/04/28 05:45:50;;;;;;;6.13;4.72;;;7.00;48.80;;;;;;4985296;28;20108;-72
2021/04/28 05:48:19;;;;;;;7.70;5.25;;;7.00;48.80;;;;;;5017768;28;20383;-73
2021/04/28 05:50:45;;;;;;;6.03;4.70;;;7.00;48.70;;;;;;5018195;28;20387;-72
2021/04/28 05:53:10;;;;;;;7.55;5.20;;;7.00;48.70;;;;;;5001484;28;20145;-72
2021/04/28 05:55:37;;;;;;;5.93;4.22;;;7.00;48.70;;;;;;5019448;28;20137;-73
2021/04/28 05:58:03;;;;;;;6.90;5.38;;;7.10;48.70;;;;;;4985590;28;20084;-73
2021/04/28 06:00:32;;;;;;;6.88;4.60;;;7.10;48.70;;;;;;5018405;28;20049;-72
2021/04/28 06:02:58;;;;;;;6.50;4.95;;;7.10;48.80;;;;;;5019880;28;20100;-72
2021/04/28 06:05:25;;;;;;;9.93;5.05;;;7.10;48.80;;;;;;5002380;28;20162;-72
2021/04/28 06:07:51;;;;;;;6.65;4.78;;;7.10;48.80;;;;;;5019552;28;20045;-72
2021/04/28 06:10:17;;;;;;;7.65;4.97;;;7.20;48.80;;;;;;4985470;28;20402;-73
2021/04/28 06:12:44;;;;;;;7.05;4.50;;;7.10;48.80;;;;;;4985954;28;20052;-73
2021/04/28 06:15:11;;;;;;;8.07;4.70;;;7.20;49.10;;;;;;5019082;28;20074;-73
2021/04/28 06:17:37;;;;;;;7.72;4.88;;;7.20;49.00;;;;;;5019475;28;20073;-71
2021/04/28 06:20:05;;;;;;;6.63;4.40;;;7.20;49.10;;;;;;5019766;28;20061;-74
2021/04/28 06:22:31;;;;;;;8.32;4.82;;;7.20;49.10;;;;;;5005361;28;20049;-72
2021/04/28 06:24:57;;;;;;;6.93;5.00;;;7.30;49.10;;;;;;5021682;28;20049;-72
2021/04/28 06:27:23;;;;;;;8.68;5.10;;;7.20;48.90;;;;;;5021390;28;20045;-73
2021/04/28 06:29:49;;;;;;;6.65;4.57;;;7.30;48.80;;;;;;5039354;28;20091;-73
2021/04/28 06:32:14;;;;;;;7.53;5.00;;;7.30;49.40;;;;;;4988876;28;20494;-73
2021/04/28 06:34:41;;;;;;;8.55;5.05;;;7.30;48.70;;;;;;5019381;28;20072;-73
2021/04/28 06:37:10;;;;;;;9.30;5.30;;;7.30;48.60;;;;;;5031912;28;20092;-73
2021/04/28 06:39:38;;;;;;;6.65;4.47;;;7.40;48.80;;;;;;5013620;28;20484;-73
2021/04/28 06:42:04;;;;;;;6.53;4.57;;;7.40;48.70;;;;;;4997164;28;20050;-73
2021/04/28 06:44:29;;;;;;;6.55;5.13;;;7.40;48.80;;;;;;4996668;28;20565;-72
2021/04/28 06:46:56;;;;;;;6.88;4.80;;;7.50;48.70;;;;;;5031034;28;20136;-74
2021/04/28 06:49:21;;;;;;;9.23;4.70;;;7.50;48.70;;;;;;5012490;28;20045;-73
2021/04/28 06:51:47;;;;;;;10.02;5.38;;;7.50;48.70;;;;;;5037982;28;20048;-72
2021/04/28 06:54:20;;;;;;;7.30;5.03;;;7.50;48.50;;;;;;5021089;28;20050;-73
2021/04/28 06:56:46;;;;;;;6.43;4.43;;;7.60;48.50;;;;;;5004980;28;20481;-73
2021/04/28 06:59:17;;;;;;;7.10;5.13;;;7.60;48.40;;;;;;5017114;28;20046;-73
2021/04/28 07:01:45;;;;;;;7.13;5.05;;;7.60;48.50;;;;;;5018357;28;20041;-73
2021/04/28 07:04:11;;;;;;;9.00;5.65;;;7.60;48.40;;;;;;4984394;28;20050;-73
2021/04/28 07:06:37;;;;;;;7.70;5.30;;;7.70;49.20;;;;;;5017081;28;20045;-72
2021/04/28 07:09:04;;;;;;;8.02;5.57;;;7.70;48.30;;;;;;5034608;28;20044;-72
2021/04/28 07:11:31;;;;;;;7.65;5.38;;;7.70;48.40;;;;;;5001725;28;20045;-72
2021/04/28 07:13:57;;;;;;;7.55;5.15;;;7.80;48.30;;;;;;5038813;28;20064;-73
2021/04/28 07:16:22;;;;;;;8.25;4.80;;;7.80;48.30;;;;;;4988511;28;20525;-73
2021/04/28 07:18:51;;;;;;;9.32;5.30;;;7.80;48.50;;;;;;5039075;28;20104;-74
2021/04/28 07:21:18;;;;;;;8.25;5.25;;;7.90;48.20;;;;;;5038544;28;20466;-73
2021/04/28 07:23:44;;;;;;;7.68;5.15;;;7.90;48.20;;;;;;5039044;28;20037;-73
2021/04/28 07:26:09;;;;;;;9.55;5.68;;;7.90;48.00;;;;;;5021284;28;20034;-73
2021/04/28 07:28:36;;;;;;;7.90;5.40;;;8.00;48.00;;;;;;5020546;28;20471;-72
2021/04/28 07:31:02;;;;;;;6.40;5.13;;;8.00;48.20;;;;;;5022876;28;20049;-72
2021/04/28 07:33:31;;;;;;;7.45;5.22;;;8.00;48.00;;;;;;5007695;28;20041;-73
2021/04/28 07:36:03;;;;;;;7.63;5.30;;;8.10;48.00;;;;;;5025271;28;20064;-73
2021/04/28 07:38:31;;;;;;;7.70;5.57;;;8.10;47.90;;;;;;5041311;28;20053;-73
2021/04/28 07:40:57;;;;;;;8.52;5.40;;;8.20;47.80;;;;;;5024912;28;20174;-73
2021/04/28 07:43:23;;;;;;;8.43;5.15;;;8.20;47.70;;;;;;5023949;28;20132;-73
2021/04/28 07:45:54;;;;;;;7.63;5.53;;;8.20;47.80;;;;;;5041201;28;20056;-73
2021/04/28 07:48:21;;;;;;;7.22;5.75;;;8.30;48.60;;;;;;5023714;28;20056;-73
2021/04/28 07:50:49;;;;;;;7.70;5.07;;;8.30;47.80;;;;;;5024149;28;20053;-73
2021/04/28 07:53:15;;;;;;;10.20;5.60;;;8.40;47.80;;;;;;5006467;28;20394;-76
2021/04/28 07:55:43;;;;;;;7.47;6.05;;;8.40;47.80;;;;;;5007781;28;20042;-73
2021/04/28 07:58:09;;;;;;;11.77;6.65;;;8.50;48.00;;;;;;5007420;28;20413;-73
2021/04/28 08:00:35;;;;;;;7.28;5.70;;;8.50;48.20;;;;;;5006966;28;20536;-73
2021/04/28 08:03:00;;;;;;;7.38;5.53;;;8.60;48.30;;;;;;5023509;28;20504;-75
2021/04/28 08:05:26;;;;;;;10.93;6.15;;;8.60;48.30;;;;;;5023024;28;20056;-73
2021/04/28 08:07:52;;;;;;;8.68;5.70;;;8.70;48.30;;;;;;5023494;28;20045;-71
2021/04/28 08:10:21;;;;;;;8.07;6.25;;;8.80;48.40;;;;;;5023386;28;20093;-73
2021/04/28 08:12:47;;;;;;;6.97;5.82;;;8.80;48.40;;;;;;5023290;28;20061;-73
2021/04/28 08:15:13;;;;;;;8.52;5.28;;;8.90;48.30;;;;;;5007455;28;20470;-72
2021/04/28 08:17:39;;;;;;;7.25;5.20;;;9.00;48.30;;;;;;5007292;28;20053;-72
2021/04/28 08:20:05;;;;;;;6.72;5.20;;;9.10;48.40;;;;;;4987496;28;20057;-73
2021/04/28 08:22:33;;;;;;;8.35;6.05;;;9.10;48.40;;;;;;5003789;28;20041;-72
2021/04/28 08:25:04;;;;;;;9.32;5.70;;;9.20;48.40;;;;;;4988688;28;20049;-72
2021/04/28 08:27:30;;;;;;;7.97;4.82;;;9.30;48.30;;;;;;5001885;28;20081;-73
2021/04/28 08:29:56;;;;;;;8.73;6.18;;;9.40;48.20;;;;;;5003837;28;20482;-73
2021/04/28 08:32:22;;;;;;;8.57;5.85;;;9.50;48.10;;;;;;5019668;28;20048;-73
2021/04/28 08:34:48;;;;;;;8.60;6.20;;;9.50;47.90;;;;;;5003770;28;20041;-72
2021/04/28 08:37:14;;;;;;;8.98;6.45;;;9.60;47.90;;;;;;5004173;28;20045;-72
2021/04/28 08:39:40;;;;;;;11.98;5.82;;;9.70;47.70;;;;;;5021177;28;20452;-74
2021/04/28 08:42:06;;;;;;;8.13;6.07;;;9.80;47.60;;;;;;4987028;28;20074;-73
2021/04/28 08:44:32;;;;;;;9.48;6.43;;;9.90;47.50;;;;;;5020701;28;20069;-74
2021/04/28 08:47:05;;;;;;;8.35;6.28;;;10.00;47.20;;;;;;5020090;28;20038;-72
2021/04/28 08:49:31;;;;;;;8.90;6.30;;;10.10;47.00;;;;;;5003300;28;20429;-72
2021/04/28 08:51:56;;;;;;;9.88;6.03;;;10.30;46.90;;;;;;5019351;28;20044;-72
2021/04/28 08:54:23;;;;;;;9.82;6.18;;;10.40;47.00;;;;;;5000807;28;20092;-73
2021/04/28 08:56:54;;;;;;;9.10;6.43;;;10.50;47.00;;;;;;5017049;28;20068;-72
2021/04/28 08:59:24;;;;;;;8.88;6.20;;;10.70;46.90;;;;;;5001604;28;20052;-75
2021/04/28 09:01:50;;;;;;;9.13;6.47;;;10.90;46.60;;;;;;5018856;28;20065;-74
2021/04/28 09:04:23;;;;;;;10.85;6.82;;;11.00;46.20;;;;;;5019317;28;20072;-72
2021/04/28 09:06:50;;;;;;;9.60;7.05;;;11.20;45.80;;;;;;5019051;28;20053;-73
2021/04/28 09:09:16;;;;;;;11.05;6.75;;;11.40;45.70;;;;;;5003584;28;20046;-72
2021/04/28 09:11:55;;;;;;;9.52;6.25;;;11.50;45.40;;;;;;5019407;28;20169;-73
2021/04/28 09:14:24;;;;;;;8.93;6.50;;;11.70;45.00;;;;;;5019734;28;20050;-73
2021/04/28 09:17:07;;;;;;;10.57;7.13;;;11.80;44.70;;;;;;5002821;28;20046;-73
2021/04/28 09:19:36;;;;;;;8.10;7.00;;;12.00;44.40;;;;;;5019114;28;20042;-73
2021/04/28 09:22:10;;;;;;;9.68;7.30;;;12.20;44.00;;;;;;5019048;28;20050;-73
2021/04/28 09:24:56;;;;;;;9.65;6.97;;;12.30;43.70;;;;;;5002974;28;20053;-74
2021/04/28 09:27:32;;;;;;;9.27;6.35;;;12.50;43.60;;;;;;5017973;28;20470;-72
2021/04/28 09:29:58;;;;;;;10.25;6.72;;;12.70;43.30;;;;;;5014845;28;20064;-72
2021/04/28 09:32:34;;;;;;;8.65;6.50;;;12.80;42.90;;;;;;5017289;28;20534;-72
2021/04/28 09:35:16;;;;;;;7.47;6.60;;;12.90;42.40;;;;;;4999973;28;20077;-73
2021/04/28 09:37:53;;;;;;;11.10;7.90;;;13.10;42.40;;;;;;5018159;28;20045;-72
2021/04/28 09:40:22;;;;;;;8.40;7.50;;;13.30;42.80;;;;;;5019583;28;20046;-72
2021/04/28 09:42:58;;;;;;;8.68;6.75;;;13.50;42.50;;;;;;5018780;28;20034;-71
2021/04/28 09:45:49;;;;;;;10.35;7.43;;;13.70;42.50;;;;;;5003262;28;20077;-72
2021/04/28 09:48:24;;;;;;;9.35;6.97;;;14.00;42.80;;;;;;4988566;28;20042;-73
2021/04/28 09:51:06;;;;;;;12.85;7.15;;;14.20;42.50;;;;;;5002434;28;20077;-72
2021/04/28 09:53:32;;;;;;;9.00;7.22;;;14.40;41.80;;;;;;4988485;28;20101;-78
2021/04/28 09:55:58;;;;;;;8.38;7.07;;;14.60;41.50;;;;;;5002697;28;20076;-72
2021/04/28 09:58:54;;;;;;;9.27;6.72;;;14.80;41.70;;;;;;5003373;28;20080;-71
2021/04/28 10:01:31;;;;;;;8.88;6.60;;;15.00;41.60;;;;;;5018958;28;20034;-72
2021/04/28 10:03:57;;;;;;;8.60;6.45;;;15.20;41.80;;;;;;5018712;28;20056;-73
2021/04/28 10:06:47;;;;;;;7.43;6.38;;;15.40;41.50;;;;;;5019093;28;20097;-72
2021/04/28 10:09:30;;;;;;;7.75;6.15;;;15.60;41.90;;;;;;5002328;28;20433;-72
2021/04/28 10:11:56;;;;;;;8.77;6.78;;;15.80;41.30;;;;;;5018526;28;20529;-72
2021/04/28 10:14:22;;;;;;;8.80;6.80;;;16.00;41.20;;;;;;5019081;28;20065;-72
2021/04/28 10:17:02;;;;;;;7.50;6.22;;;16.20;41.20;;;;;;4985749;28;20609;-73
2021/04/28 10:19:31;;;;;;;9.05;7.05;;;16.40;41.10;;;;;;5018922;28;20088;-74
2021/04/28 10:22:03;;;;;;;7.68;6.63;;;16.50;40.80;;;;;;5015035;28;20109;-73
2021/04/28 10:24:31;;;;;;;7.80;6.45;;;16.70;40.60;;;;;;5000197;28;20046;-73
2021/04/28 10:26:57;;;;;;;7.88;7.03;;;16.90;40.50;;;;;;4982054;28;20052;-73
2021/04/28 10:29:23;;;;;;;8.80;6.90;;;17.10;40.10;;;;;;4998741;28;20121;-72
2021/04/28 10:31:49;;;;;;;7.68;6.95;;;17.20;40.50;;;;;;4982251;28;20050;-72
2021/04/28 10:34:24;;;;;;;7.75;6.63;;;17.40;40.10;;;;;;4966538;28;20141;-73
2021/04/28 10:36:54;;;;;;;9.00;7.50;;;17.60;39.60;;;;;;4967888;28;20058;-74
2021/04/28 10:39:25;;;;;;;7.68;6.32;;;17.70;39.20;;;;;;4998146;28;20094;-72
2021/04/28 10:41:52;;;;;;;8.57;7.20;;;17.80;39.20;;;;;;4981798;28;20038;-73
2021/04/28 10:44:41;;;;;;;11.30;7.72;;;18.00;39.00;;;;;;4998218;28;20121;-72
2021/04/28 10:47:34;;;;;;;8.68;6.57;;;18.10;38.40;;;;;;4999458;28;20053;-73
2021/04/28 10:50:02;;;;;;;11.77;7.03;;;18.30;38.20;;;;;;4981907;28;20054;-73
2021/04/28 10:52:29;;;;;;;10.50;7.07;;;18.40;38.30;;;;;;4966430;28;20046;-74
2021/04/28 10:54:54;;;;;;;8.68;7.07;;;18.60;37.90;;;;;;4998203;28;20157;-74
2021/04/28 10:57:38;;;;;;;9.02;7.15;;;18.70;37.70;;;;;;4997806;28;20504;-72
2021/04/28 11:00:19;;;;;;;8.82;8.02;;;18.90;36.60;;;;;;4981876;28;20058;-73
2021/04/28 11:02:44;;;;;;;9.38;7.60;;;19.00;36.60;;;;;;4998146;28;20046;-72
2021/04/28 11:05:11;;;;;;;7.80;7.10;;;19.10;36.70;;;;;;4983079;28;20053;-73
2021/04/28 11:07:43;;;;;;;10.52;7.22;;;19.20;36.50;;;;;;4986187;28;20069;-73
2021/04/28 11:10:24;;;;;;;11.40;7.13;;;19.30;36.20;;;;;;4969839;28;20057;-73
2021/04/28 11:13:02;;;;;;;12.13;8.02;;;19.50;35.80;;;;;;5003268;28;20133;-73
2021/04/28 11:15:53;;;;;;;9.73;6.97;;;19.70;35.30;;;;;;5003312;28;20121;-73
2021/04/28 11:18:35;;;;;;;8.95;7.18;;;20.00;35.30;;;;;;4986556;28;20359;-73
2021/04/28 11:21:15;;;;;;;7.75;6.95;;;20.20;34.70;;;;;;5010580;28;20062;-73
2021/04/28 11:24:10;;;;;;;7.93;6.50;;;20.50;34.70;;;;;;5020153;28;20042;-72
2021/04/28 11:26:45;;;;;;;10.45;7.05;;;20.80;35.00;;;;;;5018347;28;20133;-74
2021/04/28 11:29:10;;;;;;;12.77;7.43;;;21.10;34.70;;;;;;4989207;28;20045;-73
2021/04/28 11:31:54;;;;;;;10.75;7.53;;;21.30;34.10;;;;;;5005423;28;20048;-73
2021/04/28 11:34:26;;;;;;;12.57;7.25;;;21.60;33.40;;;;;;5022559;28;20060;-73
2021/04/28 11:37:05;;;;;;;11.25;7.07;;;21.80;32.40;;;;;;5020963;28;20048;-74
2021/04/28 11:39:38;;;;;;;10.38;7.72;;;22.10;32.60;;;;;;5022758;28;20045;-73
2021/04/28 11:42:15;;;;;;;8.48;7.45;;;22.40;32.30;;;;;;5021038;28;20092;-73
2021/04/28 11:44:51;;;;;;;9.13;7.35;;;22.60;31.50;;;;;;5021655;28;20076;-74
2021/04/28 11:47:18;;;;;;;9.48;7.50;;;22.70;30.80;;;;;;5021527;28;20137;-74
2021/04/28 11:49:46;;;;;;;12.65;8.95;;;22.70;30.40;;;;;;5021242;28;20379;-73
2021/04/28 11:52:12;;;;;;;10.10;8.65;;;22.70;29.80;;;;;;5021927;28;20402;-72
2021/04/28 11:54:39;;;;;;;10.13;9.23;;;22.70;29.50;;;;;;5004650;28;20044;-73
2021/04/28 11:57:05;;;;;;;9.27;8.38;;;22.80;29.20;;;;;;5004154;28;20132;-73
2021/04/28 11:59:34;;;;;;;11.02;8.60;;;22.80;29.50;;;;;;5020758;28;20104;-72
2021/04/28 12:02:02;;;;;;;8.65;7.78;;;22.90;29.30;;;;;;5020274;28;20161;-73
2021/04/28 12:04:31;;;;;;;9.63;8.02;;;23.10;29.10;;;;;;5021789;28;20046;-74
2021/04/28 12:06:57;;;;;;;8.68;7.78;;;23.20;28.80;;;;;;5004261;28;20046;-73
2021/04/28 12:09:28;;;;;;;10.98;7.97;;;23.40;28.50;;;;;;4987958;28;20050;-73
2021/04/28 12:12:23;;;;;;;9.32;8.15;;;23.60;28.30;;;;;;5021656;28;20044;-72
2021/04/28 12:15:05;;;;;;;11.20;8.85;;;23.90;28.10;;;;;;5020639;28;20068;-73
2021/04/28 12:17:35;;;;;;;9.52;8.63;;;23.90;27.90;;;;;;5019271;28;20048;-73
2021/04/28 12:20:01;;;;;;;9.32;8.43;;;24.00;27.80;;;;;;5004035;28;20069;-74
2021/04/28 12:22:28;;;;;;;9.85;8.70;;;24.10;27.60;;;;;;5023287;28;20458;-73
2021/04/28 12:24:55;;;;;;;9.25;8.45;;;24.20;27.30;;;;;;5023248;28;20418;-74
2021/04/28 12:27:24;;;;;;;9.32;8.10;;;24.30;27.30;;;;;;5023954;28;20049;-73
2021/04/28 12:30:01;;;;;;;8.68;7.78;;;24.30;26.90;;;;;;5020290;28;20045;-73
2021/04/28 12:32:32;;;;;;;9.52;8.38;;;24.40;26.50;;;;;;5004819;28;20045;-74
2021/04/28 12:35:07;;;;;;;9.80;8.75;;;24.50;26.70;;;;;;5004527;28;20041;-73
2021/04/28 12:37:32;;;;;;;9.20;8.30;;;24.60;26.30;;;;;;5038766;28;20474;-72
2021/04/28 12:39:59;;;;;;;9.77;8.20;;;24.70;26.50;;;;;;5020830;28;20060;-74
2021/04/28 12:42:35;;;;;;;10.90;9.05;;;24.70;26.40;;;;;;5038007;28;20049;-73
2021/04/28 12:45:10;;;;;;;10.32;9.32;;;24.80;26.00;;;;;;5004058;28;20045;-74
2021/04/28 12:47:36;;;;;;;9.90;8.90;;;24.90;25.90;;;;;;5004520;28;20046;-72
2021/04/28 12:50:07;;;;;;;10.27;9.30;;;24.90;26.00;;;;;;5003750;28;20068;-72
2021/04/28 12:52:38;;;;;;;10.93;9.45;;;25.00;25.90;;;;;;5020835;28;20045;-73
2021/04/28 12:55:35;;;;;;;10.27;9.27;;;25.10;25.80;;;;;;5005018;28;20037;-71
2021/04/28 12:58:01;;;;;;;10.77;9.25;;;25.20;25.60;;;;;;5021463;28;20087;-73
2021/04/28 13:00:30;;;;;;;11.27;10.15;;;25.30;25.80;;;;;;5039559;28;20079;-72